createdAt,value
2022-11-05T00:01:55.638Z,100453.94
2022-11-05T00:04:41.238Z,100466.00
2022-11-05T00:07:34.385Z,100466.84
2022-11-05T00:10:05.685Z,100466.06
2022-11-05T00:12:51.264Z,100466.91
2022-11-05T00:15:36.391Z,100471.34
2022-11-05T00:18:03.877Z,100464.59
2022-11-05T00:20:30.638Z,100464.59
2022-11-05T00:23:24.188Z,100466.31
2022-11-05T00:25:54.917Z,100450.84
2022-11-05T00:28:21.805Z,100456.91
2022-11-05T00:30:49.074Z,100447.41
2022-11-05T00:33:16.085Z,100449.06
2022-11-05T00:35:43.038Z,100434.41
2022-11-05T00:38:09.851Z,100438.38
2022-11-05T00:40:37.121Z,100431.31
2022-11-05T00:43:22.564Z,100434.56
2022-11-05T00:45:49.461Z,100433.91
2022-11-05T00:48:35.103Z,100426.41
2022-11-05T00:51:01.894Z,100425.69
2022-11-05T00:53:28.710Z,100422.28
2022-11-05T00:55:55.592Z,100429.19
2022-11-05T00:58:23.281Z,100428.38
2022-11-05T01:00:56.042Z,100430.19
2022-11-05T01:03:26.421Z,100435.16
2022-11-05T01:05:56.892Z,100429.16
2022-11-05T01:08:25.685Z,100416.31
2022-11-05T01:10:55.118Z,100417.19
2022-11-05T01:13:27.935Z,100427.56
2022-11-05T01:15:56.018Z,100426.78
2022-11-05T01:18:24.331Z,100431.84
2022-11-05T01:20:51.250Z,100432.66
2022-11-05T01:23:19.292Z,100426.50
2022-11-05T01:25:46.446Z,100440.03
2022-11-05T01:28:13.149Z,100434.44
2022-11-05T01:30:40.367Z,100435.19
2022-11-05T01:33:07.496Z,100446.25
2022-11-05T01:35:34.329Z,100449.59
2022-11-05T01:38:01.049Z,100445.63
2022-11-05T01:40:28.184Z,100446.69
2022-11-05T01:42:54.924Z,100437.44
2022-11-05T01:45:27.437Z,100446.97
2022-11-05T01:48:00.207Z,100443.63
2022-11-05T01:50:45.146Z,100435.91
2022-11-05T01:53:24.696Z,100443.56
2022-11-05T01:56:00.049Z,100441.84
2022-11-05T01:58:32.844Z,100435.88
2022-11-05T02:00:59.809Z,100447.94
2022-11-05T02:03:27.133Z,100441.69
2022-11-05T02:05:56.979Z,100438.25
2022-11-05T02:08:56.095Z,100434.06
2022-11-05T02:11:23.500Z,100446.03
2022-11-05T02:13:50.967Z,100447.38
2022-11-05T02:16:46.453Z,100438.47
2022-11-05T02:19:50.768Z,100422.25
2022-11-05T02:22:20.199Z,100429.25
2022-11-05T02:25:04.450Z,100423.50
2022-11-05T02:28:10.816Z,100434.00
2022-11-05T02:31:03.473Z,100429.00
2022-11-05T02:33:43.975Z,100429.00
2022-11-05T02:36:38.450Z,100431.63
2022-11-05T02:39:36.064Z,100428.09
2022-11-05T02:42:10.516Z,100428.13
2022-11-05T02:44:40.229Z,100423.91
2022-11-05T02:47:22.354Z,100431.41
2022-11-05T02:50:17.241Z,100426.13
2022-11-05T02:52:56.886Z,100433.81
2022-11-05T02:55:45.576Z,100428.72
2022-11-05T02:58:12.364Z,100423.69
2022-11-05T03:01:00.460Z,100419.38
2022-11-05T03:03:34.801Z,100421.91
2022-11-05T03:06:22.596Z,100434.84
2022-11-05T03:09:47.011Z,100431.00
2022-11-05T03:12:38.369Z,100435.19
2022-11-05T03:15:31.153Z,100435.88
2022-11-05T03:18:00.780Z,100444.44
2022-11-05T03:20:37.086Z,100449.75
2022-11-05T03:23:03.838Z,100456.72
2022-11-05T03:25:32.399Z,100464.72
2022-11-05T03:28:06.665Z,100470.78
2022-11-05T03:30:35.676Z,100474.41
2022-11-05T03:33:13.815Z,100477.66
2022-11-05T03:35:47.290Z,100487.91
2022-11-05T03:38:19.853Z,100500.50
2022-11-05T03:40:49.631Z,100498.13
2022-11-05T03:43:19.324Z,100497.38
2022-11-05T03:46:07.023Z,100499.44
2022-11-05T03:48:38.340Z,100512.06
2022-11-05T03:51:17.911Z,100514.03
2022-11-05T03:53:50.298Z,100509.06
2022-11-05T03:56:23.070Z,100521.06
2022-11-05T03:58:54.652Z,100515.16
2022-11-05T04:01:25.476Z,100527.38
2022-11-05T04:03:52.289Z,100533.16
2022-11-05T04:06:37.945Z,100536.66
2022-11-05T04:09:23.063Z,100533.16
2022-11-05T04:12:08.807Z,100550.38
2022-11-05T04:14:35.570Z,100559.97
2022-11-05T04:17:11.456Z,100554.16
2022-11-05T04:20:04.965Z,100553.75
2022-11-05T04:22:52.839Z,100563.22
2022-11-05T04:25:21.099Z,100562.47
2022-11-05T04:27:48.488Z,100574.13
2022-11-05T04:30:20.863Z,100577.66
2022-11-05T04:33:01.615Z,100591.50
2022-11-05T04:35:37.119Z,100596.03
2022-11-05T04:38:06.099Z,100594.56
2022-11-05T04:40:32.889Z,100599.94
2022-11-05T04:42:59.913Z,100608.44
2022-11-05T04:45:28.984Z,100597.56
2022-11-05T04:47:55.869Z,100597.84
2022-11-05T04:50:23.091Z,100599.34
2022-11-05T04:52:50.044Z,100601.47
2022-11-05T04:55:16.829Z,100610.84
2022-11-05T04:57:43.933Z,100620.38
2022-11-05T05:00:11.380Z,100618.28
2022-11-05T05:02:38.458Z,100618.84
2022-11-05T05:05:05.978Z,100618.03
2022-11-05T05:07:35.961Z,100609.41
2022-11-05T05:10:04.638Z,100617.47
2022-11-05T05:12:32.898Z,100612.63
2022-11-05T05:14:59.770Z,100609.06
2022-11-05T05:17:26.538Z,100608.16
2022-11-05T05:20:11.880Z,100601.38
2022-11-05T05:22:38.654Z,100598.00
2022-11-05T05:25:05.561Z,100599.31
2022-11-05T05:27:32.354Z,100600.41
2022-11-05T05:29:59.909Z,100606.28
2022-11-05T05:32:27.550Z,100602.56
2022-11-05T05:34:54.354Z,100601.00
2022-11-05T05:37:21.228Z,100598.72
2022-11-05T05:39:48.610Z,100602.22
2022-11-05T05:42:15.797Z,100603.81
2022-11-05T05:44:42.652Z,100608.91
2022-11-05T05:47:09.630Z,100604.69
2022-11-05T05:49:36.384Z,100601.50
2022-11-05T05:52:03.289Z,100609.28
2022-11-05T05:54:33.405Z,100606.53
2022-11-05T05:57:00.948Z,100599.44
2022-11-05T05:59:27.641Z,100612.25
2022-11-05T06:01:54.596Z,100612.28
2022-11-05T06:04:21.461Z,100613.22
2022-11-05T06:06:48.345Z,100621.97
2022-11-05T06:09:15.726Z,100621.59
2022-11-05T06:11:42.619Z,100632.09
2022-11-05T06:14:11.158Z,100626.47
2022-11-05T06:16:39.859Z,100628.50
2022-11-05T06:19:07.634Z,100631.41
2022-11-05T06:21:35.334Z,100638.25
2022-11-05T06:24:03.115Z,100636.16
2022-11-05T06:26:30.659Z,100640.28
2022-11-05T06:28:57.533Z,100641.47
2022-11-05T06:31:24.858Z,100650.34
2022-11-05T06:34:14.248Z,100663.09
2022-11-05T06:36:41.098Z,100670.84
2022-11-05T06:39:11.901Z,100674.38
2022-11-05T06:42:03.837Z,100676.31
2022-11-05T06:44:26.120Z,100691.22
2022-11-05T06:46:52.840Z,100700.38
2022-11-05T06:49:19.583Z,100709.03
2022-11-05T06:51:56.155Z,100719.59
2022-11-05T06:54:42.477Z,100725.63
2022-11-05T06:57:24.265Z,100727.69
2022-11-05T06:59:54.557Z,100740.00
2022-11-05T07:02:24.391Z,100738.53
2022-11-05T07:04:51.243Z,100739.72
2022-11-05T07:07:18.049Z,100752.69
2022-11-05T07:09:44.914Z,100760.38
2022-11-05T07:12:11.857Z,100765.56
2022-11-05T07:14:38.619Z,100771.63
2022-11-05T07:17:05.551Z,100778.59
2022-11-05T07:19:32.385Z,100778.69
2022-11-05T07:21:59.318Z,100788.22
2022-11-05T07:24:26.193Z,100795.25
2022-11-05T07:26:53.024Z,100799.88
2022-11-05T07:29:19.796Z,100802.69
2022-11-05T07:31:47.085Z,100812.19
2022-11-05T07:34:13.830Z,100813.16
2022-11-05T07:36:40.735Z,100812.38
2022-11-05T07:39:07.547Z,100821.03
2022-11-05T07:41:34.476Z,100831.34
2022-11-05T07:44:01.198Z,100833.84
2022-11-05T07:46:28.043Z,100837.34
2022-11-05T07:48:54.785Z,100838.34
2022-11-05T07:51:21.805Z,100844.63
2022-11-05T07:53:48.674Z,100839.59
2022-11-05T07:56:16.073Z,100852.44
2022-11-05T07:58:43.100Z,100850.88
2022-11-05T08:01:10.149Z,100849.44
2022-11-05T08:03:36.995Z,100848.59
2022-11-05T08:06:04.358Z,100855.53
2022-11-05T08:08:31.595Z,100862.38
2022-11-05T08:11:06.760Z,100862.25
2022-11-05T08:13:34.347Z,100875.16
2022-11-05T08:16:02.049Z,100874.34
2022-11-05T08:18:34.467Z,100879.53
2022-11-05T08:21:03.889Z,100881.22
2022-11-05T08:23:31.792Z,100882.25
2022-11-05T08:25:58.990Z,100881.59
2022-11-05T08:28:26.801Z,100890.19
2022-11-05T08:30:55.633Z,100895.28
2022-11-05T08:33:24.016Z,100902.19
2022-11-05T08:35:51.021Z,100903.06
2022-11-05T08:38:19.349Z,100898.81
2022-11-05T08:40:55.042Z,100903.19
2022-11-05T08:43:22.620Z,100906.63
2022-11-05T08:45:49.692Z,100899.09
2022-11-05T08:48:18.612Z,100907.88
2022-11-05T08:50:47.889Z,100914.84
2022-11-05T08:53:15.369Z,100908.03
2022-11-05T08:55:44.010Z,100911.50
2022-11-05T08:58:15.021Z,100910.56
2022-11-05T09:00:43.573Z,100915.13
2022-11-05T09:03:10.931Z,100916.16
2022-11-05T09:05:40.047Z,100919.56
2022-11-05T09:08:09.034Z,100921.25
2022-11-05T09:10:36.460Z,100921.19
2022-11-05T09:13:04.436Z,100919.56
2022-11-05T09:15:32.256Z,100919.78
2022-11-05T09:17:59.733Z,100920.69
2022-11-05T09:20:26.517Z,100929.28
2022-11-05T09:22:53.298Z,100924.16
2022-11-05T09:25:20.514Z,100921.59
2022-11-05T09:27:47.260Z,100923.31
2022-11-05T09:30:14.293Z,100925.88
2022-11-05T09:32:41.349Z,100931.03
2022-11-05T09:35:08.981Z,100931.00
2022-11-05T09:37:39.171Z,100930.13
2022-11-05T09:40:06.851Z,100931.13
2022-11-05T09:42:42.472Z,100930.31
2022-11-05T09:45:16.940Z,100937.25
2022-11-05T09:47:50.954Z,100938.16
2022-11-05T09:50:24.424Z,100936.44
2022-11-05T09:52:51.613Z,100939.91
2022-11-05T09:55:27.981Z,100947.81
2022-11-05T09:58:00.673Z,100944.41
2022-11-05T10:00:30.577Z,100943.53
2022-11-05T10:03:05.166Z,100946.09
2022-11-05T10:05:34.217Z,100951.25
2022-11-05T10:08:12.796Z,100948.69
2022-11-05T10:10:43.112Z,100953.00
2022-11-05T10:13:34.008Z,100954.72
2022-11-05T10:16:25.726Z,100947.84
2022-11-05T10:19:16.807Z,100950.44
2022-11-05T10:22:05.569Z,100947.00
2022-11-05T10:24:30.874Z,100949.66
2022-11-05T10:26:58.042Z,100944.50
2022-11-05T10:29:32.527Z,100946.28
2022-11-05T10:32:03.227Z,100940.28
2022-11-05T10:34:33.804Z,100941.16
2022-11-05T10:37:01.008Z,100937.69
2022-11-05T10:39:29.400Z,100934.25
2022-11-05T10:42:11.581Z,100930.00
2022-11-05T10:44:45.262Z,100940.31
2022-11-05T10:47:18.008Z,100936.88
2022-11-05T10:49:59.959Z,100942.03
2022-11-05T10:52:39.463Z,100937.75
2022-11-05T10:55:21.015Z,100936.00
2022-11-05T10:57:49.709Z,100929.09
2022-11-05T11:00:16.659Z,100935.13
2022-11-05T11:02:46.543Z,100924.78
2022-11-05T11:05:28.503Z,100921.34
2022-11-05T11:07:58.356Z,100914.44
2022-11-05T11:10:26.297Z,100918.72
2022-11-05T11:12:54.020Z,100913.56
2022-11-05T11:15:20.655Z,100919.56
2022-11-05T11:17:48.037Z,100924.75
2022-11-05T11:20:24.065Z,100921.31
2022-11-05T11:23:09.871Z,100922.22
2022-11-05T11:26:00.756Z,100917.88
2022-11-05T11:28:38.142Z,100916.97
2022-11-05T11:31:11.859Z,100905.72
2022-11-05T11:33:41.191Z,100912.56
2022-11-05T11:36:10.219Z,100916.03
2022-11-05T11:38:37.841Z,100911.69
2022-11-05T11:41:26.677Z,100915.16
2022-11-05T11:44:02.578Z,100924.66
2022-11-05T11:46:33.338Z,100916.88
2022-11-05T11:49:00.150Z,100918.56
2022-11-05T11:51:31.867Z,100924.63
2022-11-05T11:54:00.483Z,100909.94
2022-11-05T11:56:29.155Z,100916.84
2022-11-05T11:59:01.334Z,100919.41
2022-11-05T12:01:54.031Z,100915.97
2022-11-05T12:04:42.258Z,100921.06
2022-11-05T12:07:09.119Z,100926.19
2022-11-05T12:10:11.158Z,100926.16
2022-11-05T12:13:07.492Z,100927.03
2022-11-05T12:15:54.120Z,100923.66
2022-11-05T12:18:46.993Z,100929.63
2022-11-05T12:21:34.665Z,100921.00
2022-11-05T12:24:51.495Z,100927.00
2022-11-05T12:27:26.823Z,100921.69
2022-11-05T12:30:08.803Z,100926.81
2022-11-05T12:32:53.707Z,100915.63
2022-11-05T12:35:58.210Z,100914.00
2022-11-05T12:38:54.244Z,100925.13
2022-11-05T12:42:06.939Z,100933.69
2022-11-05T12:44:53.370Z,100931.84
2022-11-05T12:47:23.080Z,100941.34
2022-11-05T12:50:26.785Z,100937.03
2022-11-05T12:53:01.627Z,100945.72
2022-11-05T12:55:37.059Z,100941.47
2022-11-05T12:58:38.708Z,100942.22
2022-11-05T13:01:11.342Z,100942.19
2022-11-05T13:03:58.903Z,100947.38
2022-11-05T13:06:41.989Z,100950.00
2022-11-05T13:09:41.225Z,100950.88
2022-11-05T13:12:13.590Z,100951.78
2022-11-05T13:15:00.661Z,100945.84
2022-11-05T13:17:33.897Z,100956.22
2022-11-05T13:20:06.560Z,100957.94
2022-11-05T13:22:40.388Z,100947.41
2022-11-05T13:25:19.874Z,100949.13
2022-11-05T13:28:01.683Z,100957.69
2022-11-05T13:30:34.230Z,100958.59
2022-11-05T13:33:07.789Z,100950.84
2022-11-05T13:36:20.414Z,100955.13
2022-11-05T13:39:19.080Z,100952.53
2022-11-05T13:42:01.785Z,100960.31
2022-11-05T13:44:31.754Z,100956.91
2022-11-05T13:47:19.576Z,100961.19
2022-11-05T13:50:21.218Z,100958.53
2022-11-05T13:53:32.670Z,100961.19
2022-11-05T13:56:03.031Z,100962.97
2022-11-05T13:59:01.539Z,100963.75
2022-11-05T14:01:43.818Z,100975.88
2022-11-05T14:04:31.837Z,100969.94
2022-11-05T14:07:36.598Z,100977.75
2022-11-05T14:10:27.840Z,100982.97
2022-11-05T14:12:56.664Z,100988.19
2022-11-05T14:15:29.657Z,100983.06
2022-11-05T14:18:00.868Z,100979.63
2022-11-05T14:20:30.262Z,100993.41
2022-11-05T14:23:23.155Z,100991.72
2022-11-05T14:26:21.191Z,101010.75
2022-11-05T14:29:03.056Z,101009.91
2022-11-05T14:32:07.910Z,101012.47
2022-11-05T14:34:45.454Z,100999.44
2022-11-05T14:37:12.642Z,101016.66
2022-11-05T14:39:41.056Z,101005.44
2022-11-05T14:42:16.394Z,101022.69
2022-11-05T14:45:19.679Z,101008.88
2022-11-05T14:47:59.343Z,101032.19
2022-11-05T14:50:38.151Z,101033.00
2022-11-05T14:53:26.665Z,101029.53
2022-11-05T14:56:04.353Z,101035.59
2022-11-05T14:58:32.884Z,101037.38
2022-11-05T15:01:14.499Z,101053.84
2022-11-05T15:03:46.212Z,101052.13
2022-11-05T15:06:29.056Z,101059.94
2022-11-05T15:09:04.935Z,101059.97
2022-11-05T15:11:37.813Z,101065.16
2022-11-05T15:14:31.088Z,101062.59
2022-11-05T15:17:08.938Z,101075.59
2022-11-05T15:19:38.600Z,101060.06
2022-11-05T15:22:12.427Z,101068.72
2022-11-05T15:24:42.736Z,101066.97
2022-11-05T15:27:22.664Z,101076.47
2022-11-05T15:29:49.554Z,101078.19
2022-11-05T15:32:18.463Z,101079.09
2022-11-05T15:34:55.944Z,101086.84
2022-11-05T15:37:25.529Z,101086.88
2022-11-05T15:39:54.670Z,101082.53
2022-11-05T15:42:26.477Z,101098.03
2022-11-05T15:45:00.169Z,101097.13
2022-11-05T15:47:30.596Z,101100.47
2022-11-05T15:49:57.609Z,101102.16
2022-11-05T15:52:32.104Z,101102.97
2022-11-05T15:55:14.628Z,101106.38
2022-11-05T15:57:51.340Z,101111.53
2022-11-05T16:00:26.843Z,101114.97
2022-11-05T16:02:58.785Z,101115.00
2022-11-05T16:05:28.529Z,101121.00
2022-11-05T16:07:59.174Z,101121.75
2022-11-05T16:10:32.326Z,101125.84
2022-11-05T16:13:23.549Z,101125.00
2022-11-05T16:15:55.638Z,101126.72
2022-11-05T16:18:24.495Z,101127.50
2022-11-05T16:21:02.216Z,101137.66
2022-11-05T16:23:41.955Z,101134.13
2022-11-05T16:29:29.693Z,101145.16
2022-11-05T16:31:57.964Z,101146.81
2022-11-05T16:34:28.338Z,101150.94
2022-11-05T16:36:57.893Z,101151.88
2022-11-05T16:39:25.625Z,101152.72
2022-11-05T16:41:52.944Z,101151.94
2022-11-05T16:44:19.978Z,101149.28
2022-11-05T16:46:49.133Z,101162.22
2022-11-05T16:49:17.620Z,101156.97
2022-11-05T16:51:46.573Z,101165.56
2022-11-05T16:54:14.002Z,101163.75
2022-11-05T16:56:43.020Z,101167.97
2022-11-05T16:59:13.363Z,101162.72
2022-11-05T17:01:42.398Z,101161.00
2022-11-05T17:04:13.057Z,101175.44
2022-11-05T17:06:39.905Z,101181.06
2022-11-05T17:09:07.439Z,101188.78
2022-11-05T17:11:34.406Z,101191.41
2022-11-05T17:14:01.293Z,101185.31
2022-11-05T17:16:28.267Z,101196.56
2022-11-05T17:18:55.184Z,101194.84
2022-11-05T17:21:22.250Z,101198.00
2022-11-05T17:23:49.229Z,101200.84
2022-11-05T17:26:16.248Z,101205.81
2022-11-05T17:28:43.342Z,101212.75
2022-11-05T17:31:17.389Z,101207.78
2022-11-05T17:33:45.081Z,101201.59
2022-11-05T17:36:14.932Z,101216.88
2022-11-05T17:38:42.226Z,101207.13
2022-11-05T17:41:13.281Z,101216.94
2022-11-05T17:43:40.796Z,101222.94
2022-11-05T17:46:09.691Z,101223.78
2022-11-05T17:48:38.336Z,101233.00
2022-11-05T17:51:09.544Z,101234.19
2022-11-05T17:53:37.470Z,101239.53
2022-11-05T17:56:09.589Z,101250.72
2022-11-05T17:58:37.406Z,101249.09
2022-11-05T18:01:05.442Z,101259.28
2022-11-05T18:03:32.911Z,101259.78
2022-11-05T18:06:06.839Z,101266.88
2022-11-05T18:08:36.393Z,101273.22
2022-11-05T18:11:03.481Z,101261.94
2022-11-05T18:13:34.073Z,101264.63
2022-11-05T18:16:01.168Z,101271.88
2022-11-05T18:18:28.006Z,101269.44
2022-11-05T18:20:58.928Z,101276.53
2022-11-05T18:23:26.354Z,101268.16
2022-11-05T18:25:53.272Z,101265.88
2022-11-05T18:28:20.391Z,101267.84
2022-11-05T18:30:47.290Z,101281.16
2022-11-05T18:33:14.401Z,101284.97
2022-11-05T18:35:45.177Z,101294.31
2022-11-05T18:38:12.500Z,101303.63
2022-11-05T18:40:39.770Z,101302.59
2022-11-05T18:43:08.883Z,101298.13
2022-11-05T18:45:35.825Z,101311.09
2022-11-05T18:48:03.309Z,101308.00
2022-11-05T18:50:32.249Z,101308.22
2022-11-05T18:52:59.118Z,101300.31
2022-11-05T18:55:25.996Z,101308.75
2022-11-05T18:57:52.898Z,101305.16
2022-11-05T19:00:29.573Z,101304.53
2022-11-05T19:02:57.091Z,101296.03
2022-11-05T19:05:31.386Z,101310.66
2022-11-05T19:07:58.637Z,101312.72
2022-11-05T19:10:26.016Z,101314.50
2022-11-05T19:12:53.162Z,101321.50
2022-11-05T19:15:20.106Z,101326.91
2022-11-05T19:17:47.021Z,101322.59
2022-11-05T19:20:14.009Z,101325.28
2022-11-05T19:22:40.878Z,101336.31
2022-11-05T19:25:08.233Z,101336.25
2022-11-05T19:27:35.776Z,101338.72
2022-11-05T19:30:03.019Z,101336.78
2022-11-05T19:32:29.818Z,101343.47
2022-11-05T19:34:56.530Z,101347.97
2022-11-05T19:37:23.440Z,101334.13
2022-11-05T19:39:50.231Z,101340.59
2022-11-05T19:42:17.066Z,101346.25
2022-11-05T19:44:44.171Z,101352.66
2022-11-05T19:47:11.114Z,101347.53
2022-11-05T19:49:37.912Z,101358.56
2022-11-05T19:52:04.933Z,101353.34
2022-11-05T19:54:31.762Z,101351.88
2022-11-05T19:56:58.831Z,101365.47
2022-11-05T19:59:25.813Z,101356.50
2022-11-05T20:01:52.744Z,101372.38
2022-11-05T20:04:19.673Z,101363.09
2022-11-05T20:06:46.473Z,101370.34
2022-11-05T20:09:22.985Z,101370.69
2022-11-05T20:11:54.543Z,101366.84
2022-11-05T20:14:23.023Z,101368.66
2022-11-05T20:16:50.285Z,101366.75
2022-11-05T20:19:19.720Z,101385.22
2022-11-05T20:21:46.989Z,101379.38
2022-11-05T20:24:23.307Z,101375.81
2022-11-05T20:26:52.331Z,101387.63
2022-11-05T20:29:19.474Z,101389.50
2022-11-05T20:31:47.048Z,101386.16
2022-11-05T20:34:13.898Z,101383.59
2022-11-05T20:36:41.417Z,101387.75
2022-11-05T20:39:08.291Z,101394.69
2022-11-05T20:41:35.117Z,101395.97
2022-11-05T20:44:02.003Z,101403.81
2022-11-05T20:46:28.959Z,101406.38
2022-11-05T20:48:56.162Z,101413.41
2022-11-05T20:51:25.144Z,101424.41
2022-11-05T20:53:57.366Z,101428.28
2022-11-05T20:56:27.365Z,101437.13
2022-11-05T20:58:57.925Z,101430.69
2022-11-05T21:01:26.344Z,101434.56
2022-11-05T21:03:53.484Z,101435.34
2022-11-05T21:06:20.381Z,101435.22
2022-11-05T21:08:48.769Z,101435.22
2022-11-05T21:11:16.230Z,101445.69
2022-11-05T21:13:43.152Z,101446.16
2022-11-05T21:16:15.437Z,101453.91
2022-11-05T21:18:45.014Z,101455.84
2022-11-05T21:21:16.040Z,101452.22
2022-11-05T21:23:43.091Z,101455.16
2022-11-05T21:26:13.388Z,101458.75
2022-11-05T21:28:41.608Z,101462.56
2022-11-05T21:31:10.828Z,101462.06
2022-11-05T21:33:37.806Z,101459.50
2022-11-05T21:36:10.829Z,101466.09
2022-11-05T21:38:38.173Z,101470.66
2022-11-05T21:41:05.848Z,101463.56
2022-11-05T21:43:33.352Z,101462.03
2022-11-05T21:46:02.069Z,101469.50
2022-11-05T21:48:29.239Z,101473.13
2022-11-05T21:51:14.873Z,101475.22
2022-11-05T21:54:01.752Z,101475.22
2022-11-05T21:56:50.407Z,101472.44
2022-11-05T21:59:38.753Z,101480.28
2022-11-05T22:02:09.960Z,101468.69
2022-11-05T22:04:41.908Z,101464.22
2022-11-05T22:07:10.363Z,101469.88
2022-11-05T22:09:37.736Z,101467.34
2022-11-05T22:12:05.012Z,101465.13
2022-11-05T22:14:32.409Z,101467.47
2022-11-05T22:16:59.339Z,101465.16
2022-11-05T22:19:26.652Z,101461.19
2022-11-05T22:21:53.930Z,101458.34
2022-11-05T22:24:20.961Z,101473.34
2022-11-05T22:26:48.370Z,101467.31
2022-11-05T22:29:15.709Z,101468.69
2022-11-05T22:31:43.061Z,101473.81
2022-11-05T22:34:10.240Z,101467.13
2022-11-05T22:36:37.626Z,101470.53
2022-11-05T22:39:05.580Z,101470.41
2022-11-05T22:41:32.975Z,101461.78
2022-11-05T22:43:59.800Z,101476.63
2022-11-05T22:46:27.553Z,101471.31
2022-11-05T22:48:56.302Z,101472.09
2022-11-05T22:51:25.847Z,101469.63
2022-11-05T22:53:53.429Z,101472.94
2022-11-05T22:56:22.525Z,101471.38
2022-11-05T22:58:49.885Z,101470.81
2022-11-05T23:01:17.627Z,101474.41
2022-11-05T23:03:46.332Z,101488.63
2022-11-05T23:06:39.204Z,101485.06
2022-11-05T23:09:31.830Z,101495.16
2022-11-05T23:11:59.444Z,101507.25
2022-11-05T23:14:27.448Z,101501.16
2022-11-05T23:17:13.646Z,101500.25
2022-11-05T23:19:59.690Z,101510.28
2022-11-05T23:22:48.310Z,101507.13
2022-11-05T23:25:20.553Z,101507.25
2022-11-05T23:27:49.559Z,101505.72
2022-11-05T23:30:20.152Z,101507.34
2022-11-05T23:32:47.140Z,101510.53
2022-11-05T23:35:14.747Z,101515.66
2022-11-05T23:38:01.029Z,101515.31
2022-11-05T23:40:30.846Z,101513.22
2022-11-05T23:43:16.599Z,101517.94
2022-11-05T23:46:03.389Z,101513.81
2022-11-05T23:48:30.279Z,101508.47
2022-11-05T23:51:01.127Z,101524.56
2022-11-05T23:53:30.496Z,101518.28
2022-11-05T23:56:23.346Z,101521.25
2022-11-05T23:58:50.181Z,101514.81
